Time;durP1;ratioP1;P1;durP2;ratioP2;P2;SDS_P1;SDS_P2;PMS_P1;PMS_P2;Temp;Humidity;BMP_temperature;BMP_pressure;BME280_temperature;BME280_humidity;BME280_pressure;Samples;Min_cycle;Max_cycle;Signal;HPM_P1;HPM_P2
2021/12/16 00:31:19;;;;;;;99.65;48.88;;;11.50;99.90;;;;;;5084303;28;20400;-77
2021/12/16 00:33:45;;;;;;;101.32;48.67;;;11.50;99.90;;;;;;5080175;28;20034;-77
2021/12/16 00:36:12;;;;;;;99.07;49.38;;;11.50;99.90;;;;;;5083689;28;20055;-77
2021/12/16 00:38:40;;;;;;;104.78;49.83;;;11.50;99.90;;;;;;5084387;28;20473;-77
2021/12/16 00:41:06;;;;;;;107.10;51.22;;;11.50;99.90;;;;;;5084344;28;20020;-77
2021/12/16 00:43:43;;;;;;;97.70;48.75;;;11.50;99.90;;;;;;5086670;28;20389;-78
2021/12/16 00:56:33;;;;;;;96.60;47.10;;;11.50;99.90;;;;;;5082750;28;19969;-77
2021/12/16 00:59:01;;;;;;;93.75;49.47;;;11.50;99.90;;;;;;5081890;28;20082;-77
2021/12/16 01:35:03;;;;;;;101.22;51.55;;;11.40;99.90;;;;;;5086011;28;20094;-76
2021/12/16 01:38:14;;;;;;;100.47;50.85;;;11.40;99.90;;;;;;5083616;28;20033;-77
2021/12/16 01:51:31;;;;;;;101.88;50.40;;;11.50;99.90;;;;;;5079593;28;20061;-77
2021/12/16 01:57:24;;;;;;;103.18;49.88;;;11.40;99.90;;;;;;5080914;28;20039;-78
2021/12/16 02:00:00;;;;;;;99.63;48.05;;;11.50;99.90;;;;;;5081009;28;20029;-77
2021/12/16 02:10:16;;;;;;;99.82;48.75;;;11.50;99.90;;;;;;5082635;28;20467;-77
2021/12/16 02:29:15;;;;;;;102.43;48.22;;;11.40;99.90;;;;;;5086749;28;20524;-77
2021/12/16 02:32:08;;;;;;;103.78;50.33;;;11.50;99.90;;;;;;5079953;28;20393;-77
2021/12/16 02:37:20;;;;;;;99.80;47.28;;;11.50;99.90;;;;;;5087439;28;20063;-78
2021/12/16 02:39:47;;;;;;;110.60;53.10;;;11.40;99.90;;;;;;5090624;28;20024;-77
2021/12/16 02:42:20;;;;;;;113.20;52.28;;;11.50;99.90;;;;;;5086030;28;20038;-78
2021/12/16 02:48:29;;;;;;;97.93;49.50;;;11.50;99.90;;;;;;5085928;28;20033;-77
2021/12/16 02:50:24;;;;;;;101.50;50.85;;;11.40;99.90;;;;;;5083225;28;20178;-77
2021/12/16 02:52:51;;;;;;;100.20;48.97;;;11.40;99.90;;;;;;5088791;28;20465;-77
2021/12/16 02:55:18;;;;;;;100.82;50.17;;;11.30;99.90;;;;;;5090632;28;20606;-78
2021/12/16 02:57:55;;;;;;;100.18;51.92;;;11.40;99.90;;;;;;5084553;28;20031;-77
2021/12/16 03:00:21;;;;;;;114.45;52.17;;;11.40;99.90;;;;;;5090488;28;20020;-77
2021/12/16 03:02:51;;;;;;;99.07;48.47;;;11.50;99.90;;;;;;5094389;28;20020;-77
2021/12/16 03:05:19;;;;;;;107.15;48.28;;;11.50;99.90;;;;;;5081084;28;20450;-78
2021/12/16 03:07:45;;;;;;;108.03;51.92;;;11.50;99.90;;;;;;5087687;28;20104;-78
2021/12/16 03:13:08;;;;;;;100.10;49.67;;;11.50;99.90;;;;;;5081076;28;20033;-78
2021/12/16 03:20:54;;;;;;;109.88;50.88;;;11.50;99.90;;;;;;5086728;28;20064;-77
2021/12/16 03:38:53;;;;;;;112.70;51.67;;;11.50;99.90;;;;;;5087082;28;20032;-78
2021/12/16 03:41:19;;;;;;;105.18;52.47;;;11.50;99.90;;;;;;5080391;28;20097;-79
2021/12/16 03:43:47;;;;;;;99.40;49.22;;;11.40;99.90;;;;;;5083857;28;20016;-79
2021/12/16 03:46:25;;;;;;;104.57;52.20;;;11.40;99.90;;;;;;5088816;28;20484;-78
2021/12/16 03:49:06;;;;;;;104.03;48.92;;;11.40;99.90;;;;;;5086942;28;20016;-79
2021/12/16 03:51:38;;;;;;;97.70;50.28;;;11.40;99.90;;;;;;5085399;28;20061;-79
2021/12/16 03:54:19;;;;;;;101.50;50.07;;;11.40;99.90;;;;;;5083729;28;20059;-78
2021/12/16 03:56:45;;;;;;;113.35;51.70;;;11.40;99.90;;;;;;5085307;28;20357;-78
2021/12/16 03:59:15;;;;;;;106.47;49.47;;;11.40;99.90;;;;;;5088895;28;20044;-78
2021/12/16 04:01:41;;;;;;;109.07;51.67;;;11.40;99.90;;;;;;5084049;28;20536;-79
2021/12/16 04:04:07;;;;;;;101.57;50.80;;;11.30;99.90;;;;;;5079521;28;20153;-77
2021/12/16 04:06:35;;;;;;;107.78;50.30;;;11.40;99.90;;;;;;5090759;28;20384;-79
2021/12/16 04:09:03;;;;;;;113.50;53.22;;;11.40;99.90;;;;;;5081212;28;20035;-79
2021/12/16 04:11:39;;;;;;;102.22;48.92;;;11.40;99.90;;;;;;5083452;28;20020;-78
2021/12/16 04:14:06;;;;;;;108.72;52.58;;;11.40;99.90;;;;;;5086456;28;20024;-77
2021/12/16 04:16:45;;;;;;;107.05;48.08;;;11.40;99.90;;;;;;5082292;28;20035;-78
2021/12/16 04:19:14;;;;;;;101.88;48.42;;;11.50;99.90;;;;;;5086027;28;20035;-78
2021/12/16 04:21:44;;;;;;;112.55;52.35;;;11.50;99.90;;;;;;5083464;28;20531;-79
2021/12/16 04:24:11;;;;;;;111.80;53.83;;;11.40;99.90;;;;;;5090294;28;20032;-79
2021/12/16 04:26:39;;;;;;;106.55;51.85;;;11.40;99.90;;;;;;5085746;28;20032;-79
2021/12/16 04:29:06;;;;;;;105.85;50.83;;;11.40;99.90;;;;;;5088350;28;20433;-79
2021/12/16 04:31:34;;;;;;;114.00;54.42;;;11.50;99.90;;;;;;5082323;28;20021;-79
2021/12/16 04:34:01;;;;;;;113.03;53.72;;;11.40;99.90;;;;;;5085796;28;20123;-79
2021/12/16 04:36:26;;;;;;;101.15;49.42;;;11.50;99.90;;;;;;5080625;28;20025;-78
2021/12/16 04:38:54;;;;;;;112.97;52.40;;;11.40;99.90;;;;;;5086764;28;20032;-79
2021/12/16 04:41:20;;;;;;;109.32;54.55;;;11.40;99.90;;;;;;5079679;28;20138;-79
2021/12/16 04:43:52;;;;;;;108.05;54.50;;;11.40;99.90;;;;;;5083406;28;20035;-79
2021/12/16 04:46:21;;;;;;;109.78;50.95;;;11.40;99.90;;;;;;5083844;28;20025;-79
2021/12/16 04:48:50;;;;;;;105.10;48.30;;;11.40;99.90;;;;;;5083749;28;20383;-78
2021/12/16 04:51:18;;;;;;;106.10;52.55;;;11.40;99.90;;;;;;5081149;28;20020;-79
2021/12/16 04:53:44;;;;;;;107.30;49.40;;;11.40;99.90;;;;;;5081023;28;20109;-78
2021/12/16 04:56:11;;;;;;;102.78;47.53;;;11.40;99.90;;;;;;5087110;28;20029;-77
2021/12/16 04:58:38;;;;;;;108.63;51.00;;;11.40;99.90;;;;;;5088304;28;20464;-78
2021/12/16 05:01:04;;;;;;;104.45;51.85;;;11.30;99.90;;;;;;5081414;28;20062;-78
2021/12/16 05:03:31;;;;;;;105.40;50.38;;;11.30;99.90;;;;;;5087859;28;20035;-78
2021/12/16 05:05:57;;;;;;;108.13;50.75;;;11.40;99.90;;;;;;5083395;28;20134;-77
2021/12/16 05:08:23;;;;;;;111.55;53.13;;;11.30;99.90;;;;;;5085254;28;20083;-78
2021/12/16 05:10:52;;;;;;;99.97;49.13;;;11.30;99.90;;;;;;5079807;28;20035;-77
2021/12/16 05:13:22;;;;;;;114.20;53.50;;;11.30;99.90;;;;;;5084364;28;20560;-77
2021/12/16 05:15:47;;;;;;;118.85;52.78;;;11.30;99.90;;;;;;5079303;28;20115;-77
2021/12/16 05:18:22;;;;;;;108.70;52.92;;;11.30;99.90;;;;;;5080419;28;20567;-77
2021/12/16 05:20:49;;;;;;;107.25;52.00;;;11.30;99.90;;;;;;5082817;28;20389;-78
2021/12/16 05:28:38;;;;;;;106.20;49.45;;;11.20;99.90;;;;;;5083137;28;20028;-77
2021/12/16 05:31:04;;;;;;;114.82;51.55;;;11.20;99.90;;;;;;5091389;28;20404;-77
2021/12/16 05:33:30;;;;;;;107.65;49.78;;;11.20;99.90;;;;;;5084528;28;22181;-77
2021/12/16 05:35:57;;;;;;;115.80;53.80;;;11.20;99.90;;;;;;5083299;28;20078;-77
2021/12/16 05:38:24;;;;;;;122.45;55.40;;;11.20;99.90;;;;;;5089544;28;20036;-77
2021/12/16 05:40:51;;;;;;;96.05;47.40;;;11.10;99.90;;;;;;5084040;28;20058;-77
2021/12/16 05:43:18;;;;;;;107.55;50.63;;;11.20;99.90;;;;;;5081717;28;20032;-78
2021/12/16 05:45:45;;;;;;;102.13;48.85;;;11.20;99.90;;;;;;5085107;28;20040;-77
2021/12/16 05:48:16;;;;;;;105.85;51.88;;;11.10;99.90;;;;;;5081144;28;20032;-77
2021/12/16 05:50:46;;;;;;;108.78;51.10;;;11.10;99.90;;;;;;5082931;28;20036;-77
2021/12/16 05:53:12;;;;;;;106.03;49.17;;;11.10;99.90;;;;;;5089336;28;20029;-77
2021/12/16 05:55:38;;;;;;;116.57;52.47;;;11.20;99.90;;;;;;5087328;28;20103;-77
2021/12/16 05:58:07;;;;;;;106.43;48.72;;;11.20;99.90;;;;;;5083877;28;20059;-77
2021/12/16 06:00:37;;;;;;;121.50;53.55;;;11.20;99.90;;;;;;5079519;28;20020;-78
2021/12/16 06:03:04;;;;;;;129.82;52.85;;;11.10;99.90;;;;;;5083271;28;20499;-77
2021/12/16 06:05:30;;;;;;;114.10;53.83;;;11.10;99.90;;;;;;5082025;28;20050;-78
2021/12/16 06:07:57;;;;;;;107.60;48.65;;;11.10;99.90;;;;;;5084665;28;20028;-77
2021/12/16 06:13:09;;;;;;;106.47;49.38;;;11.10;99.90;;;;;;5067454;28;20093;-77
2021/12/16 06:22:20;;;;;;;111.90;51.65;;;11.00;99.90;;;;;;5086383;28;20099;-77
2021/12/16 06:29:17;;;;;;;94.07;44.72;;;10.90;99.90;;;;;;5087542;28;20024;-77
2021/12/16 06:31:42;;;;;;;95.13;45.08;;;10.90;99.90;;;;;;5084740;28;20074;-77
2021/12/16 06:34:09;;;;;;;104.53;47.20;;;10.80;99.90;;;;;;5084232;28;20068;-77
2021/12/16 06:36:35;;;;;;;120.60;52.58;;;10.80;99.90;;;;;;5085054;28;20077;-77
2021/12/16 06:39:01;;;;;;;105.60;47.90;;;10.80;99.90;;;;;;5089248;28;20084;-77
2021/12/16 06:41:34;;;;;;;100.90;46.60;;;10.80;99.90;;;;;;5086122;28;20051;-77
2021/12/16 06:44:02;;;;;;;99.45;46.17;;;10.80;99.90;;;;;;5090413;28;20024;-77
2021/12/16 06:46:33;;;;;;;100.55;47.22;;;10.90;99.90;;;;;;5086812;28;20027;-77
2021/12/16 06:49:00;;;;;;;94.80;48.17;;;10.90;99.90;;;;;;5091817;28;20020;-77
2021/12/16 06:51:47;;;;;;;91.38;45.53;;;10.90;99.90;;;;;;5085078;28;20024;-77
2021/12/16 06:54:22;;;;;;;107.40;51.53;;;10.90;99.90;;;;;;5085478;28;20020;-77
2021/12/16 06:57:04;;;;;;;97.47;47.05;;;10.90;99.90;;;;;;5085139;28;20024;-77
2021/12/16 06:59:41;;;;;;;99.55;45.17;;;10.90;99.90;;;;;;5087842;28;20039;-78
2021/12/16 07:02:14;;;;;;;89.25;44.45;;;10.90;99.90;;;;;;5084758;28;20055;-78
2021/12/16 07:04:43;;;;;;;;;;;10.80;99.90;;;;;;5082119;28;20086;-75
2021/12/16 07:07:10;;;;;;;90.07;42.72;;;10.80;99.90;;;;;;5080421;28;20014;-77
2021/12/16 07:09:36;;;;;;;103.03;46.13;;;10.90;99.90;;;;;;5077309;28;20027;-76
2021/12/16 07:12:04;;;;;;;94.53;44.40;;;10.90;99.90;;;;;;5084289;28;20112;-76
2021/12/16 07:14:40;;;;;;;92.85;45.85;;;10.80;99.90;;;;;;5087657;28;20073;-76
2021/12/16 07:17:12;;;;;;;92.38;45.20;;;10.80;99.90;;;;;;5092296;28;20569;-76
2021/12/16 07:19:40;;;;;;;90.65;43.95;;;10.80;99.90;;;;;;5089858;28;20438;-76
2021/12/16 07:22:08;;;;;;;115.22;51.00;;;10.70;99.90;;;;;;5081753;28;20020;-75
2021/12/16 07:24:34;;;;;;;112.75;50.90;;;10.70;99.90;;;;;;5088450;28;20526;-76
2021/12/16 07:27:01;;;;;;;94.97;47.97;;;10.80;99.90;;;;;;5083271;28;20027;-76
2021/12/16 07:29:27;;;;;;;130.23;54.00;;;10.70;99.90;;;;;;5087871;28;20480;-76
2021/12/16 07:31:54;;;;;;;112.05;51.20;;;10.70;99.90;;;;;;5095695;28;20035;-76
2021/12/16 07:34:20;;;;;;;97.00;47.53;;;10.70;99.90;;;;;;5084104;28;20078;-76
2021/12/16 07:36:47;;;;;;;95.75;45.03;;;10.70;99.90;;;;;;5082519;28;20067;-77
2021/12/16 07:39:16;;;;;;;89.72;42.30;;;10.70;99.90;;;;;;5083647;28;20013;-77
2021/12/16 07:41:46;;;;;;;87.53;43.47;;;10.70;99.90;;;;;;5086903;28;20096;-76
2021/12/16 07:44:14;;;;;;;94.55;46.15;;;10.70;99.90;;;;;;5081317;28;20079;-76
2021/12/16 07:46:41;;;;;;;99.22;46.80;;;10.70;99.90;;;;;;5087259;28;20043;-77
2021/12/16 07:49:10;;;;;;;91.40;42.95;;;10.60;99.90;;;;;;5079757;28;20031;-78
2021/12/16 07:51:36;;;;;;;87.78;43.47;;;10.60;99.90;;;;;;5084020;28;20494;-77
2021/12/16 07:54:03;;;;;;;92.43;42.85;;;10.60;99.90;;;;;;5082696;28;20046;-77
2021/12/16 07:56:29;;;;;;;85.47;42.15;;;10.60;99.90;;;;;;5085408;28;20024;-77
2021/12/16 07:58:55;;;;;;;101.20;45.67;;;10.60;99.90;;;;;;5086120;28;20024;-76
2021/12/16 08:01:22;;;;;;;90.68;43.38;;;10.50;99.90;;;;;;5081414;28;20040;-75
2021/12/16 08:03:47;;;;;;;105.80;47.78;;;10.50;99.90;;;;;;5086957;28;20027;-76
2021/12/16 08:06:21;;;;;;;92.32;44.05;;;10.50;99.90;;;;;;5079851;28;20036;-76
2021/12/16 08:08:48;;;;;;;95.03;48.00;;;10.50;99.90;;;;;;5087530;28;20035;-75
2021/12/16 08:11:14;;;;;;;90.47;44.85;;;10.50;99.90;;;;;;5089102;28;20028;-76
2021/12/16 08:13:40;;;;;;;114.38;43.22;;;10.50;99.90;;;;;;5082427;28;20146;-75
2021/12/16 08:16:06;;;;;;;83.35;38.97;;;10.50;99.90;;;;;;5085367;28;20107;-76
2021/12/16 08:18:32;;;;;;;85.28;41.92;;;10.40;99.90;;;;;;5085347;28;20024;-76
2021/12/16 08:20:58;;;;;;;93.00;45.35;;;10.50;99.90;;;;;;5084257;28;20035;-76
2021/12/16 08:23:23;;;;;;;109.15;50.53;;;10.40;99.90;;;;;;5088870;28;20040;-75
2021/12/16 08:25:49;;;;;;;80.22;41.70;;;10.40;99.90;;;;;;5082821;28;20035;-76
2021/12/16 08:28:15;;;;;;;80.55;40.05;;;10.50;99.90;;;;;;5083166;28;20032;-76
2021/12/16 08:30:44;;;;;;;89.32;42.72;;;10.50;99.90;;;;;;5078887;28;20020;-76
2021/12/16 08:33:12;;;;;;;86.05;41.08;;;10.50;99.90;;;;;;5082080;28;20021;-75
2021/12/16 08:35:40;;;;;;;86.50;41.15;;;10.50;99.90;;;;;;5078591;28;20487;-76
2021/12/16 08:38:11;;;;;;;87.05;42.40;;;10.50;99.90;;;;;;5085600;28;20032;-76
2021/12/16 08:40:39;;;;;;;92.50;44.65;;;10.50;99.90;;;;;;5086650;28;20020;-75
2021/12/16 08:43:07;;;;;;;90.30;44.97;;;10.50;99.90;;;;;;5092052;28;20028;-75
2021/12/16 08:45:33;;;;;;;100.72;44.75;;;10.50;99.90;;;;;;5083590;28;20032;-76
2021/12/16 08:48:01;;;;;;;114.70;49.17;;;10.50;99.90;;;;;;5072022;28;20468;-75
2021/12/16 08:50:31;;;;;;;102.03;47.67;;;10.50;99.90;;;;;;5078101;28;20034;-76
2021/12/16 08:52:59;;;;;;;89.47;44.97;;;10.40;99.90;;;;;;5079267;28;20417;-76
2021/12/16 08:55:27;;;;;;;114.78;52.65;;;10.50;99.90;;;;;;5083342;28;20013;-76
2021/12/16 08:57:56;;;;;;;125.50;54.50;;;10.50;99.90;;;;;;5079314;28;20483;-75
2021/12/16 09:00:26;;;;;;;123.25;54.45;;;10.50;99.90;;;;;;5079858;28;20016;-76
2021/12/16 09:02:51;;;;;;;116.00;52.03;;;10.40;99.90;;;;;;5080888;28;20040;-76
2021/12/16 09:05:17;;;;;;;111.50;53.88;;;10.50;99.90;;;;;;5092102;28;20039;-76
2021/12/16 09:07:46;;;;;;;123.88;57.47;;;10.50;99.90;;;;;;5080632;28;20020;-76
2021/12/16 09:10:14;;;;;;;121.30;55.80;;;10.50;99.90;;;;;;5081530;28;20028;-76
2021/12/16 09:15:21;;;;;;;113.38;53.05;;;10.50;99.90;;;;;;5076818;28;20029;-75
2021/12/16 09:17:46;;;;;;;127.28;56.97;;;10.60;99.90;;;;;;5076048;28;20074;-76
2021/12/16 09:20:13;;;;;;;128.48;58.75;;;10.60;99.90;;;;;;5083294;28;20449;-76
2021/12/16 09:22:40;;;;;;;133.20;59.55;;;10.70;99.90;;;;;;5084135;28;20361;-72
2021/12/16 09:25:07;;;;;;;132.55;62.50;;;10.70;99.90;;;;;;5081190;28;20040;-75
2021/12/16 09:27:33;;;;;;;110.38;54.15;;;10.70;99.90;;;;;;5087703;28;20481;-76
2021/12/16 09:29:59;;;;;;;118.35;55.58;;;10.70;99.90;;;;;;5088240;28;20024;-75
2021/12/16 09:32:28;;;;;;;114.20;50.30;;;10.70;99.90;;;;;;5080943;28;20060;-75
2021/12/16 09:34:54;;;;;;;87.82;38.67;;;10.60;99.90;;;;;;5078922;28;20032;-75
2021/12/16 09:37:20;;;;;;;78.53;38.63;;;10.50;99.90;;;;;;5081889;28;20020;-75
2021/12/16 09:39:46;;;;;;;83.72;42.60;;;10.60;99.90;;;;;;5080370;28;20051;-75
2021/12/16 09:42:12;;;;;;;91.78;50.22;;;10.70;99.90;;;;;;5085487;28;20047;-75
2021/12/16 09:44:39;;;;;;;80.57;43.22;;;10.70;99.90;;;;;;5083872;28;20067;-75
2021/12/16 09:47:08;;;;;;;90.78;44.60;;;10.70;99.90;;;;;;5085172;28;20044;-75
2021/12/16 09:49:35;;;;;;;76.15;39.97;;;10.80;99.90;;;;;;5085655;28;20040;-75
2021/12/16 09:52:02;;;;;;;85.22;42.25;;;10.80;99.90;;;;;;5089587;28;20043;-75
2021/12/16 09:54:31;;;;;;;74.03;40.63;;;10.80;99.90;;;;;;5082628;28;20027;-75
2021/12/16 09:56:58;;;;;;;83.10;44.40;;;10.80;99.90;;;;;;5089027;28;20021;-77
2021/12/16 09:59:26;;;;;;;99.63;49.53;;;10.80;99.90;;;;;;5084742;28;20028;-76
2021/12/16 10:01:54;;;;;;;90.63;48.45;;;10.90;99.90;;;;;;5079738;28;20399;-77
2021/12/16 10:04:25;;;;;;;90.07;47.58;;;11.00;99.90;;;;;;5089177;28;20488;-76
2021/12/16 10:06:54;;;;;;;93.28;49.35;;;11.00;99.90;;;;;;5092540;28;20024;-76
2021/12/16 10:09:20;;;;;;;96.07;50.10;;;11.00;99.90;;;;;;5083428;28;20025;-77
2021/12/16 10:11:50;;;;;;;106.53;56.53;;;11.00;99.90;;;;;;5085139;28;20046;-79
2021/12/16 10:14:31;;;;;;;109.07;56.15;;;11.00;99.90;;;;;;5090373;28;20111;-79
2021/12/16 10:19:43;;;;;;;107.07;57.22;;;11.10;99.90;;;;;;5082035;28;20503;-76
2021/12/16 10:22:20;;;;;;;100.57;53.20;;;11.10;99.90;;;;;;5088266;28;20028;-79
2021/12/16 10:24:47;;;;;;;101.90;52.80;;;11.20;99.90;;;;;;5082532;28;20024;-79
2021/12/16 10:27:16;;;;;;;100.32;52.20;;;11.20;99.90;;;;;;5086153;28;20032;-79
2021/12/16 10:29:49;;;;;;;92.45;49.42;;;11.20;99.90;;;;;;5084842;28;20016;-79
2021/12/16 10:32:42;;;;;;;94.10;49.70;;;11.30;99.90;;;;;;5080874;28;20028;-79
2021/12/16 10:35:12;;;;;;;90.40;50.35;;;11.30;99.90;;;;;;5087922;28;20666;-78
2021/12/16 10:37:45;;;;;;;81.97;44.67;;;11.40;99.90;;;;;;5084955;28;20032;-79
2021/12/16 10:40:32;;;;;;;83.95;47.13;;;11.40;99.90;;;;;;5087893;28;21543;-80
2021/12/16 10:43:00;;;;;;;72.30;41.20;;;11.40;99.90;;;;;;5085509;28;20024;-77
2021/12/16 10:45:29;;;;;;;83.05;47.08;;;11.40;99.90;;;;;;5082676;28;20032;-77
2021/12/16 10:48:18;;;;;;;79.15;42.55;;;11.50;99.90;;;;;;5081488;28;20028;-77
2021/12/16 10:51:04;;;;;;;80.65;42.92;;;11.50;99.90;;;;;;5083727;28;20107;-79
2021/12/16 10:53:54;;;;;;;74.82;42.92;;;11.60;99.90;;;;;;5086930;28;20024;-78
2021/12/16 10:56:26;;;;;;;80.10;43.58;;;11.50;99.90;;;;;;5086809;28;20050;-79
2021/12/16 10:58:54;;;;;;;;;;;11.60;99.90;;;;;;5089971;28;20024;-77
2021/12/16 11:01:52;;;;;;;73.25;40.65;;;11.60;99.90;;;;;;5080412;28;19912;-77
2021/12/16 11:04:28;;;;;;;68.03;40.10;;;11.70;99.90;;;;;;5088351;28;20028;-79
2021/12/16 11:07:25;;;;;;;65.50;38.38;;;11.70;99.90;;;;;;5089641;28;20565;-79
2021/12/16 11:09:54;;;;;;;70.85;41.30;;;11.70;99.90;;;;;;5074938;28;20551;-78
2021/12/16 11:12:33;;;;;;;64.75;38.28;;;11.80;99.90;;;;;;5086910;28;20527;-79
2021/12/16 11:15:11;;;;;;;60.95;36.53;;;11.70;99.90;;;;;;5087567;28;20024;-79
2021/12/16 11:17:45;;;;;;;59.08;34.13;;;11.80;99.90;;;;;;5080934;28;20022;-80
2021/12/16 11:20:29;;;;;;;62.70;35.22;;;11.70;99.90;;;;;;5087676;28;20036;-79
2021/12/16 11:23:00;;;;;;;64.45;37.97;;;11.70;99.90;;;;;;5087764;28;20495;-79
2021/12/16 11:25:52;;;;;;;55.38;33.80;;;11.60;99.90;;;;;;5091162;28;20036;-78
2021/12/16 11:28:24;;;;;;;52.03;33.90;;;11.60;99.90;;;;;;5085366;28;20031;-78
2021/12/16 11:30:59;;;;;;;54.67;32.63;;;11.70;99.90;;;;;;5093565;28;20028;-79
2021/12/16 11:33:31;;;;;;;52.70;30.65;;;11.80;99.90;;;;;;5081036;28;20036;-78
2021/12/16 11:36:23;;;;;;;54.25;30.45;;;11.80;99.90;;;;;;5084164;28;20115;-79
2021/12/16 11:38:55;;;;;;;52.05;31.27;;;11.90;99.90;;;;;;5075201;28;20513;-78
2021/12/16 11:41:31;;;;;;;55.42;31.00;;;11.90;99.90;;;;;;5082722;28;20027;-78
2021/12/16 11:44:12;;;;;;;50.50;28.77;;;11.90;99.90;;;;;;5083996;28;20020;-78
2021/12/16 11:46:46;;;;;;;52.67;32.03;;;11.90;99.90;;;;;;5087796;28;20024;-78
2021/12/16 11:49:14;;;;;;;48.95;30.13;;;12.00;99.90;;;;;;5084654;28;20031;-79
2021/12/16 11:51:48;;;;;;;47.08;29.50;;;12.00;99.90;;;;;;5085202;28;20465;-77
2021/12/16 11:54:22;;;;;;;50.53;29.95;;;12.10;99.90;;;;;;5082198;28;20107;-79
2021/12/16 11:57:10;;;;;;;48.67;29.67;;;12.10;99.90;;;;;;5086107;28;20353;-79
2021/12/16 11:59:42;;;;;;;47.17;28.70;;;12.20;99.90;;;;;;5084613;28;20040;-78
2021/12/16 12:02:47;;;;;;;46.40;27.25;;;12.20;99.90;;;;;;5084033;28;20028;-79
2021/12/16 12:05:47;;;;;;;42.75;27.40;;;12.30;99.90;;;;;;5079113;28;20044;-78
2021/12/16 12:08:26;;;;;;;42.55;25.20;;;12.40;99.90;;;;;;5077819;28;20361;-78
2021/12/16 12:11:16;;;;;;;44.63;25.20;;;12.50;99.90;;;;;;5079250;28;20028;-79
2021/12/16 12:13:50;;;;;;;31.58;20.85;;;12.50;99.90;;;;;;5081067;28;20025;-79
2021/12/16 12:16:21;;;;;;;41.45;22.40;;;12.50;99.90;;;;;;5085144;28;20119;-79
2021/12/16 12:18:51;;;;;;;31.23;20.30;;;12.60;99.90;;;;;;5077844;28;20020;-78
2021/12/16 12:21:27;;;;;;;37.92;22.58;;;12.70;99.90;;;;;;5082897;28;20452;-80
2021/12/16 12:24:32;;;;;;;27.33;18.38;;;12.70;99.90;;;;;;5082248;28;20024;-79
2021/12/16 12:27:16;;;;;;;35.00;19.95;;;12.70;99.90;;;;;;5085327;28;20375;-78
2021/12/16 12:29:52;;;;;;;32.95;18.42;;;12.80;99.90;;;;;;5090050;28;20064;-78
2021/12/16 12:32:28;;;;;;;32.72;19.30;;;12.80;99.90;;;;;;5081610;28;20016;-77
2021/12/16 12:35:09;;;;;;;32.30;19.13;;;12.90;99.90;;;;;;5089310;28;20042;-76
2021/12/16 12:37:38;;;;;;;33.83;18.55;;;12.90;99.90;;;;;;5082415;28;20714;-76
2021/12/16 12:40:24;;;;;;;32.72;18.00;;;12.90;99.90;;;;;;5083258;28;20025;-76
2021/12/16 12:42:52;;;;;;;31.63;18.05;;;12.90;99.90;;;;;;5084056;28;20033;-76
2021/12/16 12:45:22;;;;;;;29.73;18.20;;;12.90;99.90;;;;;;5091711;28;20029;-76
2021/12/16 12:47:52;;;;;;;27.88;17.70;;;12.90;99.90;;;;;;5078440;28;20027;-76
2021/12/16 12:50:25;;;;;;;28.02;16.67;;;12.90;99.90;;;;;;5081086;28;20464;-77
2021/12/16 12:52:53;;;;;;;26.35;17.38;;;12.80;99.90;;;;;;5081196;28;20111;-75
2021/12/16 12:55:33;;;;;;;32.30;18.63;;;12.80;99.90;;;;;;5082403;28;20020;-75
2021/12/16 12:58:14;;;;;;;30.05;17.85;;;12.80;99.90;;;;;;5082273;28;20024;-76
2021/12/16 13:00:44;;;;;;;26.42;16.25;;;12.80;99.90;;;;;;5088358;28;20028;-76
2021/12/16 13:03:31;;;;;;;26.13;16.25;;;12.80;99.90;;;;;;5084293;28;20391;-75
2021/12/16 13:06:12;;;;;;;24.27;15.80;;;12.80;99.90;;;;;;5083295;28;20047;-75
2021/12/16 13:08:41;;;;;;;28.45;16.50;;;12.70;99.90;;;;;;5078412;28;20460;-75
2021/12/16 13:11:14;;;;;;;25.55;15.05;;;12.70;99.90;;;;;;5080299;28;20035;-75
2021/12/16 13:14:14;;;;;;;27.17;15.50;;;12.80;99.90;;;;;;5080846;28;20016;-76
2021/12/16 13:17:14;;;;;;;23.48;14.57;;;12.70;99.90;;;;;;5076735;28;20055;-76
2021/12/16 13:31:45;;;;;;;23.33;14.07;;;12.80;99.90;;;;;;5089879;28;20028;-76
2021/12/16 13:34:33;;;;;;;25.23;15.27;;;12.80;99.90;;;;;;5080839;28;20119;-75
2021/12/16 13:37:07;;;;;;;23.50;15.35;;;12.80;99.90;;;;;;5084845;28;20063;-76
2021/12/16 13:39:40;;;;;;;26.05;13.10;;;12.80;99.90;;;;;;5085057;28;20027;-76
2021/12/16 13:42:12;;;;;;;24.85;14.90;;;12.70;99.90;;;;;;5083517;28;20016;-75
2021/12/16 13:44:55;;;;;;;23.60;16.42;;;12.70;99.90;;;;;;5074525;28;20024;-76
2021/12/16 14:02:30;;;;;;;11.32;7.28;;;12.60;99.90;;;;;;5067856;28;20045;-76
2021/12/16 14:05:04;;;;;;;12.50;7.18;;;12.60;99.90;;;;;;5079260;28;20135;-77
2021/12/16 14:07:59;;;;;;;10.15;7.25;;;12.60;99.90;;;;;;5078853;28;20103;-77
2021/12/16 14:10:52;;;;;;;16.77;7.90;;;12.60;99.90;;;;;;5077677;28;20037;-77
2021/12/16 14:16:34;;;;;;;14.30;9.23;;;12.60;99.90;;;;;;5080958;28;20115;-77
2021/12/16 14:43:52;;;;;;;14.82;7.53;;;12.30;99.90;;;;;;5095290;28;20074;-77
2021/12/16 14:46:26;;;;;;;12.40;7.63;;;12.30;99.90;;;;;;5092371;28;20050;-76
2021/12/16 14:48:52;;;;;;;9.90;6.30;;;12.30;99.90;;;;;;5082937;28;20021;-76
2021/12/16 14:51:18;;;;;;;14.90;8.23;;;12.20;99.90;;;;;;5092176;28;20112;-76
2021/12/16 14:53:49;;;;;;;17.70;8.00;;;12.20;99.90;;;;;;5088797;28;20527;-76
2021/12/16 14:56:25;;;;;;;11.85;7.00;;;12.10;99.90;;;;;;5093478;28;20028;-76
2021/12/16 14:58:54;;;;;;;12.07;7.10;;;12.10;99.90;;;;;;5093385;28;20032;-77
2021/12/16 15:01:23;;;;;;;12.38;7.05;;;12.00;99.90;;;;;;5094259;28;20177;-76
2021/12/16 15:03:51;;;;;;;12.25;6.88;;;12.10;99.90;;;;;;5094454;28;20031;-76
2021/12/16 15:06:24;;;;;;;10.55;7.78;;;12.10;99.90;;;;;;5076789;28;20028;-77
2021/12/16 15:09:05;;;;;;;15.52;9.35;;;12.10;99.90;;;;;;5092945;28;20016;-77
2021/12/16 15:11:47;;;;;;;16.10;9.70;;;12.10;99.90;;;;;;5093907;28;20032;-76
2021/12/16 15:14:27;;;;;;;15.57;9.60;;;12.00;99.90;;;;;;5093903;28;20536;-76
2021/12/16 15:17:11;;;;;;;15.85;9.05;;;12.00;99.90;;;;;;5079381;28;20397;-79
2021/12/16 15:38:16;;;;;;;14.80;7.85;;;11.90;99.90;;;;;;5093761;28;20036;-79
2021/12/16 15:40:08;;;;;;;17.95;8.80;;;11.90;99.90;;;;;;5087626;28;20032;-79
2021/12/16 15:45:17;;;;;;;13.40;8.07;;;12.00;99.90;;;;;;5093456;28;20071;-78
2021/12/16 15:47:45;;;;;;;12.80;8.10;;;12.10;99.90;;;;;;5081614;28;20070;-77
2021/12/16 15:50:15;;;;;;;15.00;8.13;;;12.00;99.90;;;;;;5089995;28;20689;-77
2021/12/16 15:52:46;;;;;;;12.73;7.97;;;12.00;99.90;;;;;;5092553;28;20016;-76
2021/12/16 15:55:25;;;;;;;13.35;8.52;;;12.00;99.90;;;;;;5092903;28;20031;-76
2021/12/16 15:57:51;;;;;;;15.82;8.40;;;12.10;99.90;;;;;;5092576;28;20035;-77
2021/12/16 16:00:21;;;;;;;15.98;8.00;;;12.00;99.90;;;;;;5075708;28;20043;-76
2021/12/16 16:02:47;;;;;;;15.82;8.10;;;12.00;99.90;;;;;;5092197;28;20067;-76
2021/12/16 16:05:13;;;;;;;14.88;8.85;;;12.00;99.90;;;;;;5090546;28;20032;-76
2021/12/16 16:07:41;;;;;;;18.85;9.60;;;12.00;99.90;;;;;;5092374;28;20028;-76
2021/12/16 16:10:11;;;;;;;17.58;10.73;;;12.10;99.90;;;;;;5081834;28;20056;-77
2021/12/16 16:12:38;;;;;;;15.60;9.88;;;12.00;99.90;;;;;;5089907;28;20024;-75
2021/12/16 16:15:18;;;;;;;14.77;8.40;;;12.00;99.90;;;;;;5092300;28;20110;-75
2021/12/16 16:18:13;;;;;;;14.27;8.50;;;12.00;99.90;;;;;;5081078;28;20043;-75
2021/12/16 16:20:47;;;;;;;16.05;8.77;;;12.00;99.90;;;;;;5079527;28;20413;-75
2021/12/16 16:23:16;;;;;;;16.20;8.27;;;12.00;99.90;;;;;;5093431;28;20536;-75
2021/12/16 16:25:42;;;;;;;18.10;8.55;;;12.00;99.90;;;;;;5092317;28;20088;-76
2021/12/16 16:28:11;;;;;;;18.00;10.10;;;11.90;99.90;;;;;;5089925;28;20558;-75
2021/12/16 16:30:38;;;;;;;16.13;10.57;;;11.90;99.90;;;;;;5081023;28;20028;-75
2021/12/16 16:33:12;;;;;;;19.98;11.20;;;12.00;99.90;;;;;;5085111;28;20028;-75
2021/12/16 16:35:46;;;;;;;19.25;10.35;;;12.00;99.90;;;;;;5087653;28;20515;-75
2021/12/16 16:38:17;;;;;;;18.77;10.27;;;11.90;99.90;;;;;;5081329;28;20020;-78
2021/12/16 16:40:46;;;;;;;15.25;9.25;;;11.90;99.90;;;;;;5090465;28;20505;-77
2021/12/16 16:43:36;;;;;;;18.35;10.25;;;11.90;99.90;;;;;;5092815;28;20410;-77
2021/12/16 16:46:10;;;;;;;15.15;10.15;;;11.80;99.90;;;;;;5090960;28;20038;-77
2021/12/16 16:48:48;;;;;;;18.38;10.98;;;11.80;99.90;;;;;;5078943;28;20137;-77
2021/12/16 16:51:27;;;;;;;23.05;13.90;;;11.80;99.90;;;;;;5093191;28;20020;-77